Time;durP1;ratioP1;P1;durP2;ratioP2;P2;SDS_P1;SDS_P2;PMS_P1;PMS_P2;Temp;Humidity;BMP_temperature;BMP_pressure;BME280_temperature;BME280_humidity;BME280_pressure;Samples;Min_cycle;Max_cycle;Signal;HPM_P1;HPM_P2
2022/10/13 00:01:56;;;;;;;7.47;2.85;;;9.80;99.90;;;;;;5016679;28;20041;-71
2022/10/13 00:04:22;;;;;;;8.40;3.00;;;9.80;99.90;;;;;;5014648;28;20091;-71
2022/10/13 00:06:47;;;;;;;9.27;3.53;;;9.80;99.90;;;;;;5015280;28;20049;-71
2022/10/13 00:09:13;;;;;;;9.57;3.65;;;9.80;99.90;;;;;;5015291;28;20115;-71
2022/10/13 00:11:38;;;;;;;9.10;3.05;;;9.80;99.90;;;;;;5032885;28;20052;-71
2022/10/13 00:14:04;;;;;;;7.20;3.63;;;9.80;99.90;;;;;;5016798;28;20045;-71
2022/10/13 00:16:31;;;;;;;8.82;3.85;;;9.80;99.90;;;;;;5017276;28;20144;-71
2022/10/13 00:18:57;;;;;;;6.78;3.15;;;9.80;99.90;;;;;;5015659;28;20041;-71
2022/10/13 00:21:25;;;;;;;8.30;4.10;;;9.80;99.90;;;;;;5000979;28;20037;-71
2022/10/13 00:23:52;;;;;;;8.73;3.90;;;9.80;99.90;;;;;;5012524;28;20558;-71
2022/10/13 00:26:18;;;;;;;15.65;3.88;;;9.80;99.90;;;;;;5020334;28;20346;-71
2022/10/13 00:28:44;;;;;;;7.25;3.03;;;9.80;99.90;;;;;;5018795;28;20120;-71
2022/10/13 00:31:19;;;;;;;13.70;3.60;;;9.80;99.90;;;;;;5000703;28;20041;-71
2022/10/13 00:33:45;;;;;;;7.83;3.27;;;9.80;99.90;;;;;;5012420;28;20037;-71
2022/10/13 00:36:11;;;;;;;6.78;3.70;;;9.80;99.90;;;;;;5016313;28;20098;-71
2022/10/13 00:38:37;;;;;;;7.65;3.72;;;9.80;99.90;;;;;;5000909;28;20045;-71
2022/10/13 00:41:04;;;;;;;6.20;3.35;;;9.80;99.90;;;;;;5017946;28;20060;-71
2022/10/13 00:43:51;;;;;;;9.75;3.45;;;9.80;99.90;;;;;;4998720;28;20119;-71
2022/10/13 00:46:17;;;;;;;7.28;3.95;;;9.80;99.90;;;;;;5017479;28;20052;-71
2022/10/13 00:48:44;;;;;;;10.52;3.83;;;9.80;99.90;;;;;;5014469;28;20958;-71
2022/10/13 00:51:13;;;;;;;6.72;3.42;;;9.80;99.90;;;;;;5017150;28;20049;-71
2022/10/13 00:53:39;;;;;;;9.27;3.40;;;9.80;99.90;;;;;;4997728;28;20113;-71
2022/10/13 00:56:08;;;;;;;6.82;3.08;;;9.80;99.90;;;;;;5011076;28;20045;-71
2022/10/13 00:58:35;;;;;;;11.50;3.85;;;9.80;99.90;;;;;;5016037;28;20038;-71
2022/10/13 01:01:03;;;;;;;6.30;3.40;;;9.80;99.90;;;;;;5016805;28;20056;-71
2022/10/13 01:03:28;;;;;;;11.80;3.70;;;9.70;99.90;;;;;;4998628;28;20080;-71
2022/10/13 01:05:57;;;;;;;9.70;3.83;;;9.80;99.90;;;;;;5012665;28;20509;-71
2022/10/13 01:08:25;;;;;;;9.73;3.40;;;9.80;99.90;;;;;;5012042;28;20054;-71
2022/10/13 01:11:17;;;;;;;6.53;3.40;;;9.80;99.90;;;;;;5016927;28;20045;-71
2022/10/13 01:14:16;;;;;;;11.15;3.72;;;9.80;99.90;;;;;;5028321;28;20124;-71
2022/10/13 01:17:11;;;;;;;5.53;3.00;;;9.80;99.90;;;;;;5018295;28;20053;-71
2022/10/13 01:20:12;;;;;;;8.88;3.53;;;9.80;99.90;;;;;;5029406;28;20061;-71
2022/10/13 01:22:50;;;;;;;8.95;4.35;;;9.80;99.90;;;;;;5017248;28;20052;-71
2022/10/13 01:25:25;;;;;;;8.98;3.30;;;9.80;99.90;;;;;;5011266;28;20153;-71
2022/10/13 01:28:13;;;;;;;9.20;3.90;;;9.80;99.90;;;;;;5015118;28;20128;-71
2022/10/13 01:30:45;;;;;;;7.97;3.50;;;9.80;99.90;;;;;;5013011;28;20045;-71
2022/10/13 01:33:40;;;;;;;10.35;4.10;;;9.80;99.90;;;;;;5008415;28;20037;-71
2022/10/13 01:36:35;;;;;;;8.75;4.38;;;9.80;99.90;;;;;;5015729;28;20045;-71
2022/10/13 01:39:28;;;;;;;10.30;3.40;;;9.90;99.90;;;;;;5012474;28;20045;-71
2022/10/13 01:42:12;;;;;;;9.98;3.63;;;9.90;99.90;;;;;;5008204;28;20041;-71
2022/10/13 01:44:43;;;;;;;7.25;3.25;;;9.80;99.90;;;;;;5014823;28;20497;-71
2022/10/13 01:47:13;;;;;;;11.50;4.13;;;9.90;99.90;;;;;;5016692;28;20510;-71
2022/10/13 01:49:39;;;;;;;5.97;3.22;;;9.90;99.90;;;;;;5019707;28;20411;-71
2022/10/13 01:52:09;;;;;;;7.60;3.42;;;9.90;99.90;;;;;;5000894;28;20052;-71
2022/10/13 01:54:35;;;;;;;10.45;3.50;;;9.90;99.90;;;;;;5017765;28;20128;-71
2022/10/13 01:57:01;;;;;;;5.03;3.25;;;9.90;99.90;;;;;;4993824;28;20554;-71
2022/10/13 01:59:31;;;;;;;10.27;3.88;;;9.90;99.90;;;;;;5015795;28;20033;-71
2022/10/13 02:02:17;;;;;;;6.82;3.55;;;9.90;99.90;;;;;;5018011;28;20076;-71
2022/10/13 02:05:31;;;;;;;5.97;3.53;;;9.90;99.90;;;;;;5017084;28;20042;-71
2022/10/13 02:08:43;;;;;;;10.68;4.40;;;9.90;99.90;;;;;;5000045;28;20050;-71
2022/10/13 02:11:13;;;;;;;7.50;3.67;;;9.90;99.90;;;;;;4949512;28;20068;-71
2022/10/13 02:14:02;;;;;;;6.53;3.38;;;9.90;99.90;;;;;;5005266;28;20514;-71
2022/10/13 02:16:34;;;;;;;6.65;4.00;;;9.80;99.90;;;;;;5004184;28;20152;-71
2022/10/13 02:19:03;;;;;;;7.40;3.78;;;9.80;99.90;;;;;;5014822;28;20073;-71
2022/10/13 02:21:30;;;;;;;8.85;3.38;;;9.80;99.90;;;;;;5019588;28;20061;-71
2022/10/13 02:23:56;;;;;;;7.97;3.40;;;9.80;99.90;;;;;;5016492;28;20045;-71
2022/10/13 02:26:23;;;;;;;7.78;3.55;;;9.90;99.90;;;;;;5015074;28;20053;-71
2022/10/13 02:28:48;;;;;;;7.78;3.05;;;9.90;99.90;;;;;;5032806;28;20641;-71
2022/10/13 02:31:14;;;;;;;8.88;3.92;;;9.90;99.90;;;;;;5018992;28;20132;-71
2022/10/13 02:33:40;;;;;;;14.00;4.22;;;9.80;99.90;;;;;;5017709;28;20661;-72
2022/10/13 02:36:05;;;;;;;7.72;3.35;;;9.80;99.90;;;;;;5004672;28;20033;-71
2022/10/13 02:38:31;;;;;;;9.30;3.88;;;9.80;99.90;;;;;;5017675;28;20045;-71
2022/10/13 02:40:57;;;;;;;7.15;3.78;;;9.80;99.90;;;;;;5020634;28;20113;-71
2022/10/13 02:43:22;;;;;;;9.57;3.47;;;9.80;99.90;;;;;;5013891;28;20123;-71
2022/10/13 02:45:48;;;;;;;7.93;3.75;;;9.80;99.90;;;;;;5014596;28;20072;-71
2022/10/13 02:48:13;;;;;;;6.57;3.15;;;9.80;99.90;;;;;;5017401;28;20038;-71
2022/10/13 02:50:39;;;;;;;10.32;3.88;;;9.80;99.90;;;;;;5018041;28;20052;-71
2022/10/13 02:53:05;;;;;;;7.78;4.07;;;9.80;99.90;;;;;;5005307;28;20047;-71
2022/10/13 02:55:30;;;;;;;12.38;4.00;;;9.80;99.90;;;;;;5018914;28;20136;-71
2022/10/13 02:57:56;;;;;;;7.28;3.15;;;9.80;99.90;;;;;;5014697;28;20411;-71
2022/10/13 03:00:22;;;;;;;9.45;4.15;;;9.80;99.90;;;;;;5017025;28;20042;-71
2022/10/13 03:02:47;;;;;;;10.20;3.45;;;9.80;99.90;;;;;;5021540;28;20095;-72
2022/10/13 03:05:13;;;;;;;7.03;4.30;;;9.80;99.90;;;;;;5014902;28;20041;-71
2022/10/13 03:07:39;;;;;;;7.93;3.53;;;9.80;99.90;;;;;;5020383;28;20068;-71
2022/10/13 03:10:05;;;;;;;6.47;3.22;;;9.80;99.90;;;;;;5001484;28;20033;-71
2022/10/13 03:12:30;;;;;;;7.78;3.83;;;9.80;99.90;;;;;;5013347;28;20045;-71
2022/10/13 03:14:56;;;;;;;11.88;4.72;;;9.80;99.90;;;;;;5009874;28;20421;-71
2022/10/13 03:17:21;;;;;;;7.05;3.90;;;9.90;99.90;;;;;;5000133;28;20138;-71
2022/10/13 03:19:47;;;;;;;10.85;4.43;;;9.90;99.90;;;;;;5017115;28;20049;-71
2022/10/13 03:22:14;;;;;;;9.65;4.28;;;9.90;99.90;;;;;;5014110;28;20030;-71
2022/10/13 03:24:40;;;;;;;6.30;3.40;;;9.90;99.90;;;;;;5014258;28;20042;-71
2022/10/13 03:27:06;;;;;;;7.50;3.88;;;9.90;99.90;;;;;;5015834;28;21140;-71
2022/10/13 03:29:32;;;;;;;8.85;4.15;;;9.90;99.90;;;;;;5013947;28;20040;-71
2022/10/13 03:31:58;;;;;;;8.63;3.78;;;9.90;99.90;;;;;;5017976;28;20132;-71
2022/10/13 03:34:24;;;;;;;9.48;4.30;;;9.90;99.90;;;;;;5017525;28;20486;-71
2022/10/13 03:36:49;;;;;;;8.52;4.35;;;9.90;99.90;;;;;;5001223;28;20082;-71
2022/10/13 03:39:15;;;;;;;7.63;4.13;;;9.90;99.90;;;;;;5014668;28;20124;-71
2022/10/13 03:41:41;;;;;;;7.10;3.67;;;10.00;99.90;;;;;;5016162;28;20092;-71
2022/10/13 03:44:11;;;;;;;8.88;4.05;;;10.00;99.90;;;;;;5016606;28;20033;-71
2022/10/13 03:46:36;;;;;;;9.77;4.40;;;10.00;99.90;;;;;;5015988;28;20411;-71
2022/10/13 03:49:02;;;;;;;7.07;4.03;;;10.00;99.90;;;;;;5017840;28;20037;-71
2022/10/13 03:51:27;;;;;;;8.30;4.32;;;10.00;99.90;;;;;;5016535;28;20064;-71
2022/10/13 03:53:53;;;;;;;12.50;5.03;;;10.00;99.90;;;;;;5020654;28;20041;-71
2022/10/13 03:56:24;;;;;;;8.05;4.45;;;9.90;99.90;;;;;;5019108;28;20071;-71
2022/10/13 03:58:55;;;;;;;7.03;3.90;;;10.00;99.90;;;;;;5019405;28;20810;-71
2022/10/13 04:01:23;;;;;;;8.02;4.13;;;9.90;99.90;;;;;;5019588;28;20044;-71
2022/10/13 04:03:50;;;;;;;6.88;4.07;;;9.90;99.90;;;;;;4997101;28;20049;-71
2022/10/13 04:06:16;;;;;;;7.18;4.13;;;10.00;99.90;;;;;;5011138;28;20128;-71
2022/10/13 04:08:42;;;;;;;9.45;3.92;;;10.00;99.90;;;;;;5005208;28;20522;-71
2022/10/13 04:11:12;;;;;;;9.05;4.10;;;10.00;99.90;;;;;;5032750;28;20046;-71
2022/10/13 04:13:37;;;;;;;14.63;4.40;;;10.00;99.90;;;;;;5011209;28;20052;-71
2022/10/13 04:16:18;;;;;;;7.18;4.05;;;9.90;99.90;;;;;;4998151;28;20052;-71
2022/10/13 04:18:44;;;;;;;7.75;4.13;;;10.00;99.90;;;;;;5016293;28;20064;-71
2022/10/13 04:21:13;;;;;;;6.72;3.72;;;10.00;99.90;;;;;;5009461;28;20161;-71
2022/10/13 04:23:38;;;;;;;10.18;4.65;;;10.00;99.90;;;;;;5009875;28;20092;-71
2022/10/13 04:26:04;;;;;;;6.18;3.25;;;10.00;99.90;;;;;;5014231;28;20045;-71
2022/10/13 04:28:34;;;;;;;10.43;4.18;;;10.00;99.90;;;;;;5011597;28;20589;-71
2022/10/13 04:31:01;;;;;;;9.20;4.75;;;10.00;99.90;;;;;;5016064;28;20053;-71
2022/10/13 04:33:26;;;;;;;9.65;4.65;;;10.00;99.90;;;;;;5018193;28;20124;-71
2022/10/13 04:35:52;;;;;;;10.32;4.78;;;10.00;99.90;;;;;;5001558;28;20091;-71
2022/10/13 04:38:17;;;;;;;15.57;4.78;;;10.00;99.90;;;;;;5011664;28;20048;-71
2022/10/13 04:40:43;;;;;;;13.20;4.53;;;10.00;99.90;;;;;;5018082;28;20525;-71
2022/10/13 04:43:08;;;;;;;8.65;4.20;;;10.00;99.90;;;;;;5017174;28;20068;-71
2022/10/13 04:45:34;;;;;;;7.03;4.28;;;10.00;99.90;;;;;;5014214;28;20037;-71
2022/10/13 04:48:00;;;;;;;10.52;4.30;;;10.00;99.90;;;;;;5013651;28;20084;-71
2022/10/13 04:50:26;;;;;;;10.18;4.68;;;10.00;99.90;;;;;;5018835;28;21044;-71
2022/10/13 04:52:51;;;;;;;9.30;4.07;;;10.00;99.90;;;;;;5017569;28;20487;-71
2022/10/13 04:55:17;;;;;;;8.70;4.55;;;10.00;99.90;;;;;;5002716;28;20098;-71
2022/10/13 04:57:42;;;;;;;7.55;4.53;;;10.00;99.90;;;;;;5000628;28;20045;-71
2022/10/13 05:00:09;;;;;;;10.55;4.30;;;10.00;99.90;;;;;;4999132;28;20053;-70
2022/10/13 05:02:35;;;;;;;9.15;4.40;;;10.00;99.90;;;;;;5012031;28;20504;-71
2022/10/13 05:05:01;;;;;;;8.80;4.18;;;10.00;99.90;;;;;;5018495;28;20038;-71
2022/10/13 05:07:26;;;;;;;9.93;4.13;;;10.00;99.90;;;;;;5016574;28;20037;-71
2022/10/13 05:09:52;;;;;;;6.80;3.67;;;10.00;99.90;;;;;;5035548;28;20049;-72
2022/10/13 05:12:18;;;;;;;10.25;5.47;;;10.00;99.90;;;;;;5012739;28;20044;-71
2022/10/13 05:14:43;;;;;;;8.63;3.78;;;10.00;99.90;;;;;;5011575;28;20120;-72
2022/10/13 05:17:09;;;;;;;9.20;3.88;;;10.00;99.90;;;;;;5016719;28;20453;-72
2022/10/13 05:19:35;;;;;;;10.25;4.65;;;10.00;99.90;;;;;;4997593;28;20037;-72
2022/10/13 05:22:01;;;;;;;9.48;4.68;;;10.00;99.90;;;;;;4998692;28;20037;-72
2022/10/13 05:24:35;;;;;;;8.20;3.83;;;10.00;99.90;;;;;;5016079;28;20042;-72
2022/10/13 05:27:19;;;;;;;9.40;4.45;;;10.00;99.90;;;;;;5012437;28;20041;-72
2022/10/13 05:29:45;;;;;;;9.35;4.40;;;10.00;99.90;;;;;;5014166;28;20045;-72
2022/10/13 05:32:10;;;;;;;11.65;4.95;;;10.00;99.90;;;;;;5014500;28;20072;-72
2022/10/13 05:34:36;;;;;;;9.35;5.10;;;10.00;99.90;;;;;;5000115;28;20045;-71
2022/10/13 05:37:01;;;;;;;8.63;4.05;;;10.00;99.90;;;;;;5013940;28;20045;-71
2022/10/13 05:39:27;;;;;;;8.35;3.97;;;10.10;99.90;;;;;;5014612;28;20048;-71
2022/10/13 05:41:53;;;;;;;8.55;4.05;;;10.10;99.90;;;;;;5018783;28;20045;-71
2022/10/13 05:44:18;;;;;;;11.77;4.70;;;10.10;99.90;;;;;;5016554;28;20435;-71
2022/10/13 05:46:44;;;;;;;10.90;4.97;;;10.10;99.90;;;;;;5010660;28;20639;-71
2022/10/13 05:49:10;;;;;;;8.02;3.92;;;10.10;99.90;;;;;;5021410;28;20038;-71
2022/10/13 05:51:39;;;;;;;13.50;5.18;;;10.10;99.90;;;;;;5020961;28;20041;-71
2022/10/13 05:54:23;;;;;;;11.30;4.47;;;10.10;99.90;;;;;;5021647;28;20161;-71
2022/10/13 05:57:07;;;;;;;9.73;4.90;;;10.10;99.90;;;;;;5021841;28;20069;-71
2022/10/13 05:59:38;;;;;;;9.10;4.50;;;10.10;99.90;;;;;;5018438;28;20054;-72
2022/10/13 06:02:05;;;;;;;10.38;4.40;;;10.10;99.90;;;;;;5004565;28;20041;-72
2022/10/13 06:04:37;;;;;;;6.47;4.10;;;10.10;99.90;;;;;;5025076;28;20087;-72
2022/10/13 06:07:02;;;;;;;7.78;4.28;;;10.10;99.90;;;;;;5024371;28;20064;-71
2022/10/13 06:09:33;;;;;;;9.15;4.25;;;10.10;99.90;;;;;;5022492;28;20094;-71
2022/10/13 06:11:59;;;;;;;8.98;4.85;;;10.10;99.90;;;;;;5001243;28;20830;-69
2022/10/13 06:14:25;;;;;;;9.32;4.53;;;10.10;99.90;;;;;;5015313;28;20041;-72
2022/10/13 06:16:50;;;;;;;10.00;4.68;;;10.10;99.90;;;;;;5011645;28;20467;-72
2022/10/13 06:19:16;;;;;;;8.77;4.57;;;10.10;99.90;;;;;;4999303;28;20046;-72
2022/10/13 06:21:41;;;;;;;8.60;4.57;;;10.20;99.90;;;;;;5019882;28;20041;-71
2022/10/13 06:24:07;;;;;;;9.95;4.68;;;10.20;99.90;;;;;;5002377;28;20037;-71
2022/10/13 06:26:32;;;;;;;10.57;5.13;;;10.20;99.90;;;;;;5017101;28;20037;-72
2022/10/13 06:28:58;;;;;;;14.07;4.80;;;10.20;99.90;;;;;;4997956;28;20107;-72
2022/10/13 06:31:24;;;;;;;10.30;4.40;;;10.20;99.90;;;;;;5023783;28;20513;-71
2022/10/13 06:33:50;;;;;;;10.30;4.57;;;10.20;99.90;;;;;;5018150;28;20042;-72
2022/10/13 06:36:15;;;;;;;13.13;5.25;;;10.20;99.90;;;;;;5008880;28;20857;-71
2022/10/13 06:38:41;;;;;;;7.93;3.63;;;10.20;99.90;;;;;;5026423;28;20268;-71
2022/10/13 06:41:07;;;;;;;8.30;4.60;;;10.30;99.90;;;;;;5006797;28;20398;-72
2022/10/13 06:43:32;;;;;;;8.52;3.95;;;10.30;99.90;;;;;;5042450;28;20029;-71
2022/10/13 06:45:59;;;;;;;8.60;4.68;;;10.30;99.90;;;;;;5022319;28;20029;-71
2022/10/13 06:48:26;;;;;;;9.15;4.95;;;10.30;99.90;;;;;;5017149;28;20079;-71
2022/10/13 06:50:51;;;;;;;11.80;5.03;;;10.30;99.90;;;;;;5023564;28;20116;-71
2022/10/13 06:53:17;;;;;;;7.38;3.92;;;10.30;99.90;;;;;;5004240;28;20160;-72
2022/10/13 06:55:42;;;;;;;8.30;3.88;;;10.30;99.90;;;;;;5026232;28;20041;-71
2022/10/13 06:58:09;;;;;;;9.60;4.22;;;10.30;99.90;;;;;;5021506;28;20101;-71
2022/10/13 07:00:36;;;;;;;7.47;4.13;;;10.30;99.90;;;;;;5018166;28;20069;-72
2022/10/13 07:03:02;;;;;;;8.65;4.15;;;10.30;99.90;;;;;;5009123;28;20471;-72
2022/10/13 07:05:28;;;;;;;8.50;4.32;;;10.40;99.90;;;;;;5026050;28;20041;-72
2022/10/13 07:07:54;;;;;;;10.05;4.15;;;10.40;99.90;;;;;;5019885;28;20058;-72
2022/10/13 07:10:20;;;;;;;9.70;5.03;;;10.40;99.90;;;;;;5022723;28;20056;-70
2022/10/13 07:12:46;;;;;;;8.70;4.22;;;10.40;99.90;;;;;;5016352;28;20495;-72
2022/10/13 07:15:12;;;;;;;9.48;4.15;;;10.40;99.90;;;;;;5020429;28;20045;-71
2022/10/13 07:17:38;;;;;;;10.43;4.80;;;10.40;99.90;;;;;;5018497;28;20124;-71
2022/10/13 07:20:04;;;;;;;7.30;3.55;;;10.40;99.90;;;;;;5014394;28;20041;-74
2022/10/13 07:22:30;;;;;;;12.15;4.07;;;10.40;99.90;;;;;;5032633;28;20038;-71
2022/10/13 07:24:56;;;;;;;10.35;4.65;;;10.40;99.90;;;;;;5006454;28;20038;-71
2022/10/13 07:27:21;;;;;;;9.27;4.35;;;10.40;99.90;;;;;;5022573;28;20082;-71
2022/10/13 07:29:47;;;;;;;9.63;4.40;;;10.40;99.90;;;;;;5023803;28;20373;-71
2022/10/13 07:32:12;;;;;;;9.25;4.07;;;10.40;99.90;;;;;;5031972;28;20041;-71
2022/10/13 07:34:38;;;;;;;8.63;4.43;;;10.40;99.90;;;;;;5020990;28;20386;-71
2022/10/13 07:37:04;;;;;;;7.75;4.25;;;10.40;99.90;;;;;;5040584;28;20053;-71
2022/10/13 07:39:29;;;;;;;9.95;4.38;;;10.40;99.90;;;;;;5005863;28;20045;-71
2022/10/13 07:41:55;;;;;;;11.05;4.55;;;10.50;99.90;;;;;;5024492;28;20095;-71
2022/10/13 07:44:21;;;;;;;10.05;4.43;;;10.50;99.90;;;;;;5026380;28;20467;-71
2022/10/13 07:46:47;;;;;;;11.60;4.72;;;10.50;99.90;;;;;;5024590;28;20033;-71
2022/10/13 07:49:12;;;;;;;7.32;3.50;;;10.50;99.90;;;;;;5024401;28;20036;-71
2022/10/13 07:51:38;;;;;;;14.98;5.47;;;10.50;99.90;;;;;;5024308;28;20052;-71
2022/10/13 07:54:04;;;;;;;6.43;3.65;;;10.60;99.90;;;;;;5004016;28;20124;-71
2022/10/13 07:56:29;;;;;;;8.15;3.85;;;10.60;99.90;;;;;;5021234;28;20041;-71
2022/10/13 07:58:55;;;;;;;7.80;3.90;;;10.70;99.90;;;;;;5008893;28;20501;-71
2022/10/13 08:01:20;;;;;;;7.90;4.03;;;10.70;99.90;;;;;;5022686;28;20069;-71
2022/10/13 08:03:46;;;;;;;10.82;5.07;;;10.80;99.90;;;;;;5022463;28;20317;-71
2022/10/13 08:06:12;;;;;;;6.93;4.25;;;10.80;99.90;;;;;;5008389;28;20041;-71
2022/10/13 08:08:39;;;;;;;9.13;4.35;;;10.90;99.90;;;;;;5022476;28;20077;-71
2022/10/13 08:11:08;;;;;;;12.45;5.38;;;10.90;99.90;;;;;;5006848;28;20172;-71
2022/10/13 08:13:34;;;;;;;8.13;4.07;;;10.90;99.90;;;;;;5020335;28;20045;-71
2022/10/13 08:16:00;;;;;;;9.02;3.97;;;11.00;99.90;;;;;;5021322;28;20238;-71
2022/10/13 08:18:26;;;;;;;5.93;3.67;;;11.00;99.90;;;;;;5019995;28;20041;-71
2022/10/13 08:20:52;;;;;;;11.90;5.03;;;11.10;99.90;;;;;;5017393;28;20053;-71
2022/10/13 08:23:17;;;;;;;7.82;3.80;;;11.10;99.90;;;;;;5018378;28;20041;-71
2022/10/13 08:25:43;;;;;;;8.15;3.92;;;11.20;99.90;;;;;;4998935;28;20035;-71
2022/10/13 08:28:18;;;;;;;10.07;4.72;;;11.20;99.90;;;;;;5016262;28;20124;-71
2022/10/13 08:30:43;;;;;;;8.60;4.57;;;11.30;99.90;;;;;;5008744;28;20052;-71
2022/10/13 08:33:09;;;;;;;6.80;3.75;;;11.40;99.90;;;;;;5018097;28;20045;-71
2022/10/13 08:35:35;;;;;;;8.25;4.45;;;11.50;99.90;;;;;;5016164;28;20046;-71
2022/10/13 08:38:00;;;;;;;8.57;4.72;;;11.50;99.90;;;;;;5014916;28;20048;-71
2022/10/13 08:40:26;;;;;;;11.68;5.10;;;11.60;99.90;;;;;;5013492;28;20075;-71
2022/10/13 08:42:51;;;;;;;12.20;4.13;;;11.70;99.90;;;;;;5013476;28;20070;-71
2022/10/13 08:45:23;;;;;;;10.20;4.63;;;11.70;99.90;;;;;;5014921;28;20037;-71
2022/10/13 08:48:02;;;;;;;8.88;4.25;;;11.70;99.90;;;;;;5013499;28;20052;-71
2022/10/13 08:50:32;;;;;;;9.02;4.07;;;11.80;99.90;;;;;;5017588;28;20076;-71
2022/10/13 08:53:00;;;;;;;7.97;4.35;;;11.80;99.90;;;;;;5009302;28;20529;-71
2022/10/13 08:55:34;;;;;;;10.18;4.43;;;11.80;99.90;;;;;;5011522;28;20037;-72
2022/10/13 08:58:04;;;;;;;10.95;4.35;;;11.80;99.90;;;;;;5010947;28;20507;-71
2022/10/13 09:00:30;;;;;;;14.57;5.47;;;11.80;99.90;;;;;;5009011;28;20580;-71
2022/10/13 09:03:23;;;;;;;8.43;4.68;;;11.90;99.90;;;;;;4999791;28;20029;-71
2022/10/13 09:06:04;;;;;;;9.10;4.47;;;11.90;99.90;;;;;;5014307;28;20079;-71
2022/10/13 09:08:38;;;;;;;9.13;4.80;;;12.00;99.90;;;;;;5015251;28;20045;-71
2022/10/13 09:11:04;;;;;;;10.27;3.92;;;12.10;99.90;;;;;;5013569;28;20080;-72
2022/10/13 09:13:29;;;;;;;11.10;5.22;;;12.10;99.90;;;;;;5009584;28;20492;-71
2022/10/13 09:15:57;;;;;;;9.45;4.45;;;12.10;99.90;;;;;;5011703;28;20128;-71
2022/10/13 09:18:29;;;;;;;10.10;4.57;;;12.10;99.90;;;;;;5006553;28;20562;-71
2022/10/13 09:21:17;;;;;;;13.25;5.43;;;12.20;99.90;;;;;;4992397;28;20546;-71
2022/10/13 09:23:42;;;;;;;8.85;4.70;;;12.20;99.90;;;;;;5010328;28;20487;-71
2022/10/13 09:26:18;;;;;;;8.40;4.57;;;12.20;99.90;;;;;;5004436;28;20029;-71
2022/10/13 09:28:43;;;;;;;;;;;12.20;99.90;;;;;;5013086;28;20037;-70
2022/10/13 09:31:14;;;;;;;10.75;4.57;;;12.20;99.90;;;;;;5009888;28;20557;-68
2022/10/13 09:33:40;;;;;;;11.45;4.72;;;12.20;99.90;;;;;;4978821;28;20061;-71
2022/10/13 09:36:11;;;;;;;11.75;4.68;;;12.20;99.90;;;;;;4991467;28;20075;-72
2022/10/13 09:38:38;;;;;;;10.15;4.55;;;12.10;99.90;;;;;;5021018;28;20063;-71
2022/10/13 09:41:08;;;;;;;11.02;4.78;;;12.20;99.90;;;;;;5009068;28;21435;-72
2022/10/13 09:43:39;;;;;;;12.23;5.25;;;12.20;99.90;;;;;;5015827;28;20045;-71
2022/10/13 09:46:24;;;;;;;8.65;4.35;;;12.20;99.90;;;;;;5010442;28;20121;-71
2022/10/13 09:48:53;;;;;;;11.38;4.65;;;12.20;99.90;;;;;;5017810;28;20073;-72
2022/10/13 09:51:32;;;;;;;10.40;5.28;;;12.30;99.90;;;;;;5031437;28;20072;-72
2022/10/13 09:53:58;;;;;;;11.00;5.10;;;12.40;99.90;;;;;;5014847;28;20076;-72
2022/10/13 09:56:37;;;;;;;11.07;5.07;;;12.50;99.90;;;;;;4999183;28;20551;-72
2022/10/13 09:59:22;;;;;;;8.55;4.28;;;12.60;99.90;;;;;;5018803;28;20732;-72
2022/10/13 10:01:51;;;;;;;9.57;5.20;;;12.60;99.90;;;;;;5021778;28;20049;-71
2022/10/13 10:04:23;;;;;;;8.20;4.80;;;12.60;99.90;;;;;;5019434;28;20045;-71
2022/10/13 10:06:48;;;;;;;12.23;5.25;;;12.70;99.90;;;;;;5008125;28;20046;-71
2022/10/13 10:09:44;;;;;;;9.55;4.88;;;12.70;99.90;;;;;;5014745;28;20050;-71
2022/10/13 10:12:19;;;;;;;10.50;4.90;;;12.70;99.90;;;;;;5015436;28;20045;-71
2022/10/13 10:14:45;;;;;;;10.25;5.30;;;12.70;99.90;;;;;;5016859;28;20044;-71
2022/10/13 10:17:27;;;;;;;10.35;4.57;;;12.70;99.90;;;;;;5021968;28;20033;-72
2022/10/13 10:20:20;;;;;;;8.52;4.40;;;12.70;99.90;;;;;;5019241;28;20052;-71
2022/10/13 10:23:12;;;;;;;11.45;5.38;;;12.70;99.90;;;;;;5016706;28;20438;-71
2022/10/13 10:25:48;;;;;;;9.38;4.53;;;12.70;99.90;;;;;;5034774;28;20285;-71
2022/10/13 10:28:41;;;;;;;9.10;4.60;;;12.80;99.90;;;;;;5019600;28;20364;-71
2022/10/13 10:31:16;;;;;;;11.20;5.00;;;12.80;99.90;;;;;;5004986;28;20041;-71
2022/10/13 10:34:09;;;;;;;8.40;5.00;;;12.80;99.90;;;;;;5021537;28;20064;-71
2022/10/13 10:36:48;;;;;;;11.82;4.75;;;12.80;99.90;;;;;;5010725;28;20045;-71
2022/10/13 10:39:38;;;;;;;8.75;4.32;;;12.80;99.90;;;;;;5005810;28;20474;-78
2022/10/13 10:42:25;;;;;;;9.75;4.78;;;12.80;99.90;;;;;;5012153;28;20045;-73
2022/10/13 10:44:53;;;;;;;10.27;5.25;;;12.80;99.90;;;;;;5015156;28;20223;-72
2022/10/13 10:47:41;;;;;;;13.82;5.40;;;12.80;99.90;;;;;;5014766;28;20124;-72
2022/10/13 10:50:13;;;;;;;12.35;4.85;;;12.70;99.90;;;;;;5011570;28;20037;-72
2022/10/13 10:52:50;;;;;;;10.38;4.53;;;12.70;99.90;;;;;;5016581;28;20030;-72
2022/10/13 10:55:25;;;;;;;10.35;5.00;;;12.70;99.90;;;;;;5019493;28;20091;-72
2022/10/13 10:57:54;;;;;;;10.38;4.50;;;12.70;99.90;;;;;;5010319;28;20068;-72
2022/10/13 11:00:23;;;;;;;9.50;3.85;;;12.70;99.90;;;;;;4999934;28;20038;-71
2022/10/13 11:03:42;;;;;;;9.48;5.18;;;12.70;99.90;;;;;;5014404;28;20045;-71
2022/10/13 11:06:11;;;;;;;11.30;4.65;;;12.70;99.90;;;;;;5006705;28;20069;-71
2022/10/13 11:08:36;;;;;;;10.05;5.32;;;12.70;99.90;;;;;;4997237;28;20046;-71
2022/10/13 11:11:21;;;;;;;9.55;4.72;;;12.70;99.90;;;;;;5011832;28;20052;-71
2022/10/13 11:14:05;;;;;;;13.95;4.10;;;12.70;99.90;;;;;;5000785;28;20112;-71
2022/10/13 11:16:39;;;;;;;9.82;4.80;;;12.70;99.90;;;;;;5014719;28;20041;-71
2022/10/13 11:19:24;;;;;;;11.57;5.13;;;12.70;99.90;;;;;;5014581;28;20402;-71
2022/10/13 11:21:52;;;;;;;8.90;4.63;;;12.70;99.90;;;;;;5017287;28;20056;-71
2022/10/13 11:24:46;;;;;;;10.82;5.13;;;12.80;99.90;;;;;;5016914;28;20041;-71
2022/10/13 11:27:18;;;;;;;10.68;4.85;;;12.80;99.90;;;;;;5015924;28;20096;-71
2022/10/13 11:29:45;;;;;;;9.40;4.47;;;12.90;99.90;;;;;;5018423;28;20029;-72
2022/10/13 11:32:40;;;;;;;11.52;5.25;;;12.90;99.90;;;;;;5011732;28;20124;-72
2022/10/13 11:35:05;;;;;;;10.30;4.93;;;12.90;99.90;;;;;;5015079;28;20477;-72
2022/10/13 11:37:51;;;;;;;10.15;4.85;;;12.90;99.90;;;;;;5015362;28;20144;-72
2022/10/13 11:40:35;;;;;;;13.88;5.53;;;12.90;99.90;;;;;;5013591;28;20553;-72
2022/10/13 11:43:19;;;;;;;13.13;5.55;;;12.90;99.90;;;;;;5019521;28;20033;-72
2022/10/13 11:46:17;;;;;;;14.02;5.57;;;12.90;99.90;;;;;;5017123;28;20952;-72
2022/10/13 11:48:53;;;;;;;13.10;5.57;;;12.90;99.90;;;;;;5017025;28;20042;-72
2022/10/13 11:51:38;;;;;;;10.60;5.18;;;12.90;99.90;;;;;;4996231;28;20049;-72
2022/10/13 11:54:10;;;;;;;12.88;5.78;;;12.90;99.90;;;;;;5005250;28;20045;-72
2022/10/13 11:56:46;;;;;;;11.70;5.15;;;12.90;99.90;;;;;;5019708;28;20048;-70
2022/10/13 11:59:24;;;;;;;12.25;5.65;;;12.90;99.90;;;;;;5013793;28;20038;-70
2022/10/13 12:02:15;;;;;;;11.00;5.15;;;12.90;99.90;;;;;;5015088;28;20045;-70
2022/10/13 12:04:42;;;;;;;11.50;4.90;;;12.90;99.90;;;;;;5000341;28;20644;-71
2022/10/13 12:07:10;;;;;;;10.70;5.68;;;12.90;99.90;;;;;;5026956;28;20034;-71
2022/10/13 12:09:59;;;;;;;11.82;5.10;;;13.00;99.90;;;;;;5029633;28;20129;-71
2022/10/13 12:12:25;;;;;;;11.55;6.05;;;12.90;99.90;;;;;;5026948;28;20210;-71
2022/10/13 12:14:53;;;;;;;11.25;5.45;;;13.00;99.90;;;;;;5028355;28;20071;-71
2022/10/13 12:17:24;;;;;;;9.38;5.10;;;13.00;99.90;;;;;;5029641;28;20041;-71
2022/10/13 12:19:54;;;;;;;13.05;6.05;;;13.00;99.90;;;;;;5028352;28;20474;-71
2022/10/13 12:22:20;;;;;;;12.88;5.20;;;13.00;99.90;;;;;;5027417;28;20107;-71
2022/10/13 12:25:01;;;;;;;13.10;5.97;;;13.00;99.90;;;;;;5028136;28;20479;-71
2022/10/13 12:27:31;;;;;;;13.07;6.35;;;13.10;99.90;;;;;;5026976;28;20076;-71
2022/10/13 12:29:58;;;;;;;8.90;4.97;;;13.10;99.90;;;;;;5028043;28;20029;-71
2022/10/13 12:32:29;;;;;;;12.48;5.45;;;13.20;99.90;;;;;;5027703;28;20037;-71
2022/10/13 12:34:55;;;;;;;12.50;5.25;;;13.20;99.90;;;;;;5027626;28;20037;-71
2022/10/13 12:37:27;;;;;;;11.70;5.22;;;13.30;99.90;;;;;;5027649;28;20546;-71
2022/10/13 12:39:56;;;;;;;12.52;6.45;;;13.30;99.90;;;;;;5027799;28;20406;-71
2022/10/13 12:42:30;;;;;;;12.32;5.82;;;13.30;99.90;;;;;;5010325;28;20088;-71
2022/10/13 12:44:57;;;;;;;11.50;5.18;;;13.30;99.90;;;;;;5027731;28;20037;-71
2022/10/13 12:47:46;;;;;;;11.80;5.38;;;13.30;99.90;;;;;;5027356;28;20045;-71
2022/10/13 12:50:23;;;;;;;11.40;5.90;;;13.30;99.90;;;;;;5027879;28;20041;-71
2022/10/13 12:52:51;;;;;;;10.63;5.80;;;13.30;99.90;;;;;;5027359;28;20048;-71
2022/10/13 12:55:19;;;;;;;14.05;6.15;;;13.30;99.90;;;;;;5029015;28;20433;-71
2022/10/13 12:57:48;;;;;;;12.90;5.60;;;13.20;99.90;;;;;;5026534;28;20380;-71
2022/10/13 13:00:25;;;;;;;12.25;5.07;;;13.30;99.90;;;;;;5011126;28;20034;-71
2022/10/13 13:02:53;;;;;;;10.23;4.78;;;13.30;99.90;;;;;;5027842;28;20410;-71
2022/10/13 13:05:42;;;;;;;8.65;4.32;;;13.40;99.90;;;;;;5027667;28;20048;-71